sensor_id;sensor_type;location;lat;lon;timestamp;pressure;altitude;pressure_sealevel;temperature;humidity
77583;BME280;66726;52.388;9.986;2023-03-21T00:01:00;101061.09;;;7.08;91.04
77583;BME280;66726;52.388;9.986;2023-03-21T00:03:34;101054.50;;;7.12;91.44
77583;BME280;66726;52.388;9.986;2023-03-21T00:06:11;101043.63;;;7.16;91.32
77583;BME280;66726;52.388;9.986;2023-03-21T00:08:44;101043.94;;;7.22;90.90
77583;BME280;66726;52.388;9.986;2023-03-21T00:11:16;101045.59;;;7.23;90.36
77583;BME280;66726;52.388;9.986;2023-03-21T00:13:49;101042.34;;;7.20;90.54
77583;BME280;66726;52.388;9.986;2023-03-21T00:16:22;101036.91;;;7.21;90.40
77583;BME280;66726;52.388;9.986;2023-03-21T00:19:00;101039.69;;;7.20;90.70
77583;BME280;66726;52.388;9.986;2023-03-21T00:21:36;101036.91;;;7.21;90.43
77583;BME280;66726;52.388;9.986;2023-03-21T00:24:24;101035.75;;;7.14;90.94
77583;BME280;66726;52.388;9.986;2023-03-21T00:26:56;101037.81;;;7.10;90.97
77583;BME280;66726;52.388;9.986;2023-03-21T00:29:51;101036.44;;;7.16;90.90
77583;BME280;66726;52.388;9.986;2023-03-21T00:32:23;101031.59;;;7.21;91.11
77583;BME280;66726;52.388;9.986;2023-03-21T00:34:55;101027.38;;;7.19;91.01
77583;BME280;66726;52.388;9.986;2023-03-21T00:37:46;101025.09;;;7.14;90.58
77583;BME280;66726;52.388;9.986;2023-03-21T00:40:18;101023.09;;;7.06;91.14
77583;BME280;66726;52.388;9.986;2023-03-21T00:43:02;101020.88;;;7.11;91.06
77583;BME280;66726;52.388;9.986;2023-03-21T00:45:35;101023.41;;;7.13;91.28
77583;BME280;66726;52.388;9.986;2023-03-21T00:48:07;101023.41;;;7.13;91.20
77583;BME280;66726;52.388;9.986;2023-03-21T00:50:40;101016.16;;;7.15;91.13
77583;BME280;66726;52.388;9.986;2023-03-21T00:53:15;101014.75;;;7.21;91.41
77583;BME280;66726;52.388;9.986;2023-03-21T00:55:47;101011.66;;;7.16;90.95
77583;BME280;66726;52.388;9.986;2023-03-21T00:58:19;101009.13;;;7.14;90.72
77583;BME280;66726;52.388;9.986;2023-03-21T01:00:52;101007.97;;;7.07;91.08
77583;BME280;66726;52.388;9.986;2023-03-21T01:03:24;101007.25;;;7.05;91.62
77583;BME280;66726;52.388;9.986;2023-03-21T01:05:58;101002.63;;;7.07;91.60
77583;BME280;66726;52.388;9.986;2023-03-21T01:08:38;101001.66;;;7.08;91.82
77583;BME280;66726;52.388;9.986;2023-03-21T01:11:25;101001.66;;;7.08;91.17
77583;BME280;66726;52.388;9.986;2023-03-21T01:13:58;100995.63;;;7.06;91.64
77583;BME280;66726;52.388;9.986;2023-03-21T01:16:52;100999.69;;;7.10;92.05
77583;BME280;66726;52.388;9.986;2023-03-21T01:19:26;100998.00;;;7.09;91.72
77583;BME280;66726;52.388;9.986;2023-03-21T01:22:18;100995.63;;;7.06;91.96
77583;BME280;66726;52.388;9.986;2023-03-21T01:24:50;100990.28;;;7.06;92.05
77583;BME280;66726;52.388;9.986;2023-03-21T01:27:32;100992.69;;;7.09;92.62
77583;BME280;66726;52.388;9.986;2023-03-21T01:30:05;100986.13;;;7.13;92.77
77583;BME280;66726;52.388;9.986;2023-03-21T01:32:50;100986.66;;;7.07;92.69
77583;BME280;66726;52.388;9.986;2023-03-21T01:35:22;100985.81;;;7.06;92.54
77583;BME280;66726;52.388;9.986;2023-03-21T01:37:54;100980.47;;;7.06;92.77
77583;BME280;66726;52.388;9.986;2023-03-21T01:40:27;100982.03;;;7.09;93.07
77583;BME280;66726;52.388;9.986;2023-03-21T01:43:00;100984.97;;;7.06;93.47
77583;BME280;66726;52.388;9.986;2023-03-21T01:46:11;100982.44;;;7.04;93.04
77583;BME280;66726;52.388;9.986;2023-03-21T01:48:56;100978.94;;;7.04;93.47
77583;BME280;66726;52.388;9.986;2023-03-21T01:51:32;100985.22;;;7.03;93.91
77583;BME280;66726;52.388;9.986;2023-03-21T01:54:06;100986.78;;;7.05;93.69
77583;BME280;66726;52.388;9.986;2023-03-21T01:56:41;100981.34;;;7.07;93.98
77583;BME280;66726;52.388;9.986;2023-03-21T01:59:21;100974.47;;;7.04;93.83
77583;BME280;66726;52.388;9.986;2023-03-21T02:01:57;100972.78;;;7.03;93.93
77583;BME280;66726;52.388;9.986;2023-03-21T02:04:32;100966.88;;;7.00;94.40
77583;BME280;66726;52.388;9.986;2023-03-21T02:07:11;100970.38;;;7.00;94.50
77583;BME280;66726;52.388;9.986;2023-03-21T02:09:49;100971.50;;;6.98;94.88
77583;BME280;66726;52.388;9.986;2023-03-21T02:12:22;100968.56;;;7.01;94.84
77583;BME280;66726;52.388;9.986;2023-03-21T02:14:57;100961.28;;;7.03;94.58
77583;BME280;66726;52.388;9.986;2023-03-21T02:17:35;100965.47;;;7.05;94.49
77583;BME280;66726;52.388;9.986;2023-03-21T02:20:44;100960.50;;;7.12;94.45
77583;BME280;66726;52.388;9.986;2023-03-21T02:23:49;100954.72;;;7.07;94.24
77583;BME280;66726;52.388;9.986;2023-03-21T02:26:58;100953.88;;;7.06;94.29
77583;BME280;66726;52.388;9.986;2023-03-21T02:30:19;100951.34;;;7.05;94.52
77583;BME280;66726;52.388;9.986;2023-03-21T02:33:46;100948.41;;;7.08;94.77
77583;BME280;66726;52.388;9.986;2023-03-21T02:36:45;100939.59;;;7.07;94.65
77583;BME280;66726;52.388;9.986;2023-03-21T02:39:25;100942.09;;;7.09;94.57
77583;BME280;66726;52.388;9.986;2023-03-21T02:42:07;100939.31;;;7.10;94.54
77583;BME280;66726;52.388;9.986;2023-03-21T02:44:46;100933.16;;;7.10;94.71
77583;BME280;66726;52.388;9.986;2023-03-21T02:47:25;100941.97;;;7.10;94.46
77583;BME280;66726;52.388;9.986;2023-03-21T02:50:06;100938.34;;;7.11;94.40
77583;BME280;66726;52.388;9.986;2023-03-21T02:52:43;100934.56;;;7.14;94.17
77583;BME280;66726;52.388;9.986;2023-03-21T02:55:21;100933.44;;;7.17;94.17
77583;BME280;66726;52.388;9.986;2023-03-21T02:57:57;100926.19;;;7.19;93.77
77583;BME280;66726;52.388;9.986;2023-03-21T03:00:42;100930.66;;;7.18;93.77
77583;BME280;66726;52.388;9.986;2023-03-21T03:03:15;100932.09;;;7.22;93.61
77583;BME280;66726;52.388;9.986;2023-03-21T03:06:12;100928.59;;;7.22;93.40
77583;BME280;66726;52.388;9.986;2023-03-21T03:09:00;100923.38;;;7.20;93.11
77583;BME280;66726;52.388;9.986;2023-03-21T03:11:39;100919.75;;;7.21;93.18
77583;BME280;66726;52.388;9.986;2023-03-21T03:14:44;100920.59;;;7.22;92.94
77583;BME280;66726;52.388;9.986;2023-03-21T03:17:44;100921.44;;;7.22;92.96
77583;BME280;66726;52.388;9.986;2023-03-21T03:20:27;100917.78;;;7.23;92.82
77583;BME280;66726;52.388;9.986;2023-03-21T03:23:10;100915.13;;;7.23;93.18
77583;BME280;66726;52.388;9.986;2023-03-21T03:25:52;100918.50;;;7.25;92.74
77583;BME280;66726;52.388;9.986;2023-03-21T03:28:32;100917.50;;;7.26;92.82
77583;BME280;66726;52.388;9.986;2023-03-21T03:31:06;100913.75;;;7.29;92.84
77583;BME280;66726;52.388;9.986;2023-03-21T03:33:45;100913.88;;;7.27;92.99
77583;BME280;66726;52.388;9.986;2023-03-21T03:36:21;100922.84;;;7.26;92.80
77583;BME280;66726;52.388;9.986;2023-03-21T03:39:05;100906.84;;;7.26;92.84
77583;BME280;66726;52.388;9.986;2023-03-21T03:41:47;100923.56;;;7.28;92.94
77583;BME280;66726;52.388;9.986;2023-03-21T03:44:42;100911.22;;;7.27;92.68
77583;BME280;66726;52.388;9.986;2023-03-21T03:47:19;100919.19;;;7.27;92.88
77583;BME280;66726;52.388;9.986;2023-03-21T03:50:15;100913.75;;;7.29;92.62
77583;BME280;66726;52.388;9.986;2023-03-21T03:52:55;100921.59;;;7.30;92.82
77583;BME280;66726;52.388;9.986;2023-03-21T03:55:32;100915.28;;;7.31;92.70
77583;BME280;66726;52.388;9.986;2023-03-21T03:58:07;100916.25;;;7.30;93.00
77583;BME280;66726;52.388;9.986;2023-03-21T04:00:51;100909.13;;;7.31;92.89
77583;BME280;66726;52.388;9.986;2023-03-21T04:03:23;100907.44;;;7.30;92.77
77583;BME280;66726;52.388;9.986;2023-03-21T04:05:55;100908.28;;;7.30;92.58
77583;BME280;66726;52.388;9.986;2023-03-21T04:08:27;100913.47;;;7.32;92.82
77583;BME280;66726;52.388;9.986;2023-03-21T04:10:59;100912.63;;;7.31;92.45
77583;BME280;66726;52.388;9.986;2023-03-21T04:13:34;100910.81;;;7.32;92.79
77583;BME280;66726;52.388;9.986;2023-03-21T04:16:06;100913.31;;;7.33;92.32
77583;BME280;66726;52.388;9.986;2023-03-21T04:18:38;100916.00;;;7.33;92.69
77583;BME280;66726;52.388;9.986;2023-03-21T04:21:13;100909.69;;;7.34;92.47
77583;BME280;66726;52.388;9.986;2023-03-21T04:23:45;100908.00;;;7.33;92.45
77583;BME280;66726;52.388;9.986;2023-03-21T04:26:17;100911.38;;;7.35;92.37
77583;BME280;66726;52.388;9.986;2023-03-21T04:28:52;100908.56;;;7.37;92.67
77583;BME280;66726;52.388;9.986;2023-03-21T04:31:23;100908.84;;;7.34;92.83
77583;BME280;66726;52.388;9.986;2023-03-21T04:33:56;100913.31;;;7.33;93.03
77583;BME280;66726;52.388;9.986;2023-03-21T04:36:28;100907.19;;;7.33;93.97
77583;BME280;66726;52.388;9.986;2023-03-21T04:39:08;100908.00;;;7.33;93.64
77583;BME280;66726;52.388;9.986;2023-03-21T04:41:43;100907.19;;;7.33;93.69
77583;BME280;66726;52.388;9.986;2023-03-21T04:44:19;100904.66;;;7.31;93.91
77583;BME280;66726;52.388;9.986;2023-03-21T04:46:51;100902.94;;;7.30;93.98
77583;BME280;66726;52.388;9.986;2023-03-21T04:49:23;100900.00;;;7.33;93.91
77583;BME280;66726;52.388;9.986;2023-03-21T04:51:55;100908.00;;;7.33;94.02
77583;BME280;66726;52.388;9.986;2023-03-21T04:54:26;100894.84;;;7.32;93.80
77583;BME280;66726;52.388;9.986;2023-03-21T04:56:58;100902.94;;;7.30;94.20
77583;BME280;66726;52.388;9.986;2023-03-21T04:59:32;100900.28;;;7.30;94.10
77583;BME280;66726;52.388;9.986;2023-03-21T05:02:04;100898.34;;;7.32;93.83
77583;BME280;66726;52.388;9.986;2023-03-21T05:04:36;100897.63;;;7.30;94.18
77583;BME280;66726;52.388;9.986;2023-03-21T05:07:08;100902.94;;;7.30;94.40
77583;BME280;66726;52.388;9.986;2023-03-21T05:09:39;100901.97;;;7.31;94.25
77583;BME280;66726;52.388;9.986;2023-03-21T05:12:11;100895.69;;;7.32;94.05
77583;BME280;66726;52.388;9.986;2023-03-21T05:14:44;100897.63;;;7.30;94.35
77583;BME280;66726;52.388;9.986;2023-03-21T05:17:16;100898.47;;;7.31;94.66
77583;BME280;66726;52.388;9.986;2023-03-21T05:19:52;100897.63;;;7.30;94.89
77583;BME280;66726;52.388;9.986;2023-03-21T05:22:26;100897.63;;;7.30;94.89
77583;BME280;66726;52.388;9.986;2023-03-21T05:24:58;100897.50;;;7.32;94.47
77583;BME280;66726;52.388;9.986;2023-03-21T05:27:30;100894.00;;;7.31;94.31
77583;BME280;66726;52.388;9.986;2023-03-21T05:30:14;100895.81;;;7.31;94.78
77583;BME280;66726;52.388;9.986;2023-03-21T05:32:46;100900.00;;;7.33;94.68
77583;BME280;66726;52.388;9.986;2023-03-21T05:35:19;100899.31;;;7.31;94.53
77583;BME280;66726;52.388;9.986;2023-03-21T05:37:51;100896.53;;;7.33;94.60
77583;BME280;66726;52.388;9.986;2023-03-21T05:40:23;100894.69;;;7.33;94.48
77583;BME280;66726;52.388;9.986;2023-03-21T05:42:55;100890.09;;;7.35;94.40
77583;BME280;66726;52.388;9.986;2023-03-21T05:45:28;100890.09;;;7.35;94.25
77583;BME280;66726;52.388;9.986;2023-03-21T05:48:00;100889.81;;;7.38;94.01
77583;BME280;66726;52.388;9.986;2023-03-21T05:50:32;100881.81;;;7.38;93.63
77583;BME280;66726;52.388;9.986;2023-03-21T05:53:04;100892.31;;;7.40;93.74
77583;BME280;66726;52.388;9.986;2023-03-21T05:55:37;100886.03;;;7.41;93.94
77583;BME280;66726;52.388;9.986;2023-03-21T05:58:09;100892.06;;;7.43;93.81
77583;BME280;66726;52.388;9.986;2023-03-21T06:00:42;100890.09;;;7.45;93.39
77583;BME280;66726;52.388;9.986;2023-03-21T06:03:14;100898.94;;;7.45;93.26
77583;BME280;66726;52.388;9.986;2023-03-21T06:05:46;100892.66;;;7.46;93.18
77583;BME280;66726;52.388;9.986;2023-03-21T06:08:18;100889.81;;;7.48;93.18
77583;BME280;66726;52.388;9.986;2023-03-21T06:10:50;100884.38;;;7.49;92.93
77583;BME280;66726;52.388;9.986;2023-03-21T06:13:22;100893.06;;;7.51;92.98
77583;BME280;66726;52.388;9.986;2023-03-21T06:15:55;100885.06;;;7.51;92.88
77583;BME280;66726;52.388;9.986;2023-03-21T06:18:27;100893.75;;;7.53;92.98
77583;BME280;66726;52.388;9.986;2023-03-21T06:20:59;100889.28;;;7.54;92.43
77583;BME280;66726;52.388;9.986;2023-03-21T06:23:30;100897.25;;;7.54;92.83
77583;BME280;66726;52.388;9.986;2023-03-21T06:26:02;100901.63;;;7.55;93.12
77583;BME280;66726;52.388;9.986;2023-03-21T06:28:35;100895.31;;;7.56;92.84
77583;BME280;66726;52.388;9.986;2023-03-21T06:31:09;100892.66;;;7.56;92.73
77583;BME280;66726;52.388;9.986;2023-03-21T06:33:41;100895.16;;;7.57;92.69
77583;BME280;66726;52.388;9.986;2023-03-21T06:36:13;100889.56;;;7.60;92.52
77583;BME280;66726;52.388;9.986;2023-03-21T06:38:45;100899.25;;;7.61;92.25
77583;BME280;66726;52.388;9.986;2023-03-21T06:41:18;100902.63;;;7.63;91.73
77583;BME280;66726;52.388;9.986;2023-03-21T06:43:50;100900.78;;;7.64;91.69
77583;BME280;66726;52.388;9.986;2023-03-21T06:46:23;100897.16;;;7.65;91.42
77583;BME280;66726;52.388;9.986;2023-03-21T06:48:55;100896.19;;;7.66;91.69
77583;BME280;66726;52.388;9.986;2023-03-21T06:51:27;100901.34;;;7.68;91.22
77583;BME280;66726;52.388;9.986;2023-03-21T06:53:59;100903.91;;;7.69;91.40
77583;BME280;66726;52.388;9.986;2023-03-21T06:56:31;100903.75;;;7.71;90.83
77583;BME280;66726;52.388;9.986;2023-03-21T06:59:02;100907.25;;;7.71;91.52
77583;BME280;66726;52.388;9.986;2023-03-21T07:01:36;100901.06;;;7.71;91.51
77583;BME280;66726;52.388;9.986;2023-03-21T07:04:08;100902.78;;;7.72;91.11
77583;BME280;66726;52.388;9.986;2023-03-21T07:06:40;100905.44;;;7.72;91.21
77583;BME280;66726;52.388;9.986;2023-03-21T07:09:12;100907.81;;;7.75;91.20
77583;BME280;66726;52.388;9.986;2023-03-21T07:11:44;100907.81;;;7.75;90.83
77583;BME280;66726;52.388;9.986;2023-03-21T07:14:15;100905.88;;;7.77;91.44
77583;BME280;66726;52.388;9.986;2023-03-21T07:16:48;100910.94;;;7.80;90.85
77583;BME280;66726;52.388;9.986;2023-03-21T07:19:20;100911.78;;;7.80;90.34
77583;BME280;66726;52.388;9.986;2023-03-21T07:21:52;100909.69;;;7.84;89.86
77583;BME280;66726;52.388;9.986;2023-03-21T07:24:27;100912.34;;;7.84;89.69
77583;BME280;66726;52.388;9.986;2023-03-21T07:26:59;100907.69;;;7.86;90.00
77583;BME280;66726;52.388;9.986;2023-03-21T07:29:31;100906.72;;;7.87;90.14
77583;BME280;66726;52.388;9.986;2023-03-21T07:32:04;100906.72;;;7.87;89.97
77583;BME280;66726;52.388;9.986;2023-03-21T07:34:36;100913.47;;;7.91;89.51
77583;BME280;66726;52.388;9.986;2023-03-21T07:37:08;100907.88;;;7.94;89.04
77583;BME280;66726;52.388;9.986;2023-03-21T07:39:42;100909.41;;;7.96;88.83
77583;BME280;66726;52.388;9.986;2023-03-21T07:42:14;100911.09;;;7.97;89.09
77583;BME280;66726;52.388;9.986;2023-03-21T07:44:46;100896.91;;;7.97;89.01
77583;BME280;66726;52.388;9.986;2023-03-21T07:47:19;100891.31;;;8.00;88.63
77583;BME280;66726;52.388;9.986;2023-03-21T07:49:51;100890.03;;;8.04;88.54
77583;BME280;66726;52.388;9.986;2023-03-21T07:52:23;100889.88;;;8.05;88.49
77583;BME280;66726;52.388;9.986;2023-03-21T07:54:55;100892.44;;;8.07;88.27
77583;BME280;66726;52.388;9.986;2023-03-21T07:57:27;100890.16;;;8.12;87.58
77583;BME280;66726;52.388;9.986;2023-03-21T07:59:58;100890.72;;;8.15;87.74
77583;BME280;66726;52.388;9.986;2023-03-21T08:02:32;100893.25;;;8.17;88.33
77583;BME280;66726;52.388;9.986;2023-03-21T08:05:03;100885.41;;;8.25;88.14
77583;BME280;66726;52.388;9.986;2023-03-21T08:07:35;100888.50;;;8.30;87.63
77583;BME280;66726;52.388;9.986;2023-03-21T08:10:10;100888.22;;;8.33;87.39
77583;BME280;66726;52.388;9.986;2023-03-21T08:12:42;100890.31;;;8.39;87.13
77583;BME280;66726;52.388;9.986;2023-03-21T08:15:15;100885.41;;;8.44;87.85
77583;BME280;66726;52.388;9.986;2023-03-21T08:17:48;100885.13;;;8.47;87.93
77583;BME280;66726;52.388;9.986;2023-03-21T08:20:21;100895.50;;;8.50;87.87
77583;BME280;66726;52.388;9.986;2023-03-21T08:22:54;100887.63;;;8.58;87.28
77583;BME280;66726;52.388;9.986;2023-03-21T08:25:26;100892.38;;;8.64;86.90
77583;BME280;66726;52.388;9.986;2023-03-21T08:27:58;100890.69;;;8.73;86.12
77583;BME280;66726;52.388;9.986;2023-03-21T08:30:31;100894.59;;;8.79;85.85
77583;BME280;66726;52.388;9.986;2023-03-21T08:33:05;100896.41;;;8.78;85.67
77583;BME280;66726;52.388;9.986;2023-03-21T08:35:37;100896.28;;;8.80;85.85
77583;BME280;66726;52.388;9.986;2023-03-21T08:38:10;100899.91;;;8.88;84.79
77583;BME280;66726;52.388;9.986;2023-03-21T08:40:43;100897.09;;;8.90;85.05
77583;BME280;66726;52.388;9.986;2023-03-21T08:43:14;100893.97;;;8.94;84.08
77583;BME280;66726;52.388;9.986;2023-03-21T08:45:46;100896.34;;;8.97;84.84
77583;BME280;66726;52.388;9.986;2023-03-21T08:48:19;100894.81;;;8.95;84.60
77583;BME280;66726;52.388;9.986;2023-03-21T08:50:51;100895.66;;;8.95;84.59
77583;BME280;66726;52.388;9.986;2023-03-21T08:53:23;100892.84;;;8.97;84.94
77583;BME280;66726;52.388;9.986;2023-03-21T08:55:55;100889.03;;;8.99;83.68
77583;BME280;66726;52.388;9.986;2023-03-21T08:58:27;100891.84;;;8.98;84.32
77583;BME280;66726;52.388;9.986;2023-03-21T09:00:59;100899.56;;;9.01;84.77
77583;BME280;66726;52.388;9.986;2023-03-21T09:03:32;100903.09;;;9.01;84.58
77583;BME280;66726;52.388;9.986;2023-03-21T09:06:04;100894.22;;;9.01;84.46
77583;BME280;66726;52.388;9.986;2023-03-21T09:08:35;100897.59;;;9.03;84.38
77583;BME280;66726;52.388;9.986;2023-03-21T09:11:11;100889.16;;;9.07;83.70
77583;BME280;66726;52.388;9.986;2023-03-21T09:13:43;100887.59;;;9.05;84.12
77583;BME280;66726;52.388;9.986;2023-03-21T09:16:15;100888.44;;;9.05;83.70
77583;BME280;66726;52.388;9.986;2023-03-21T09:18:48;100881.66;;;9.11;83.43
77583;BME280;66726;52.388;9.986;2023-03-21T09:21:26;100883.06;;;9.15;83.91
77583;BME280;66726;52.388;9.986;2023-03-21T09:23:59;100876.44;;;9.19;84.28
77583;BME280;66726;52.388;9.986;2023-03-21T09:26:32;100886.81;;;9.22;83.95
77583;BME280;66726;52.388;9.986;2023-03-21T09:29:04;100880.22;;;9.26;83.68
77583;BME280;66726;52.388;9.986;2023-03-21T09:31:39;100885.25;;;9.29;83.97
77583;BME280;66726;52.388;9.986;2023-03-21T09:34:15;100886.78;;;9.32;84.53
77583;BME280;66726;52.388;9.986;2023-03-21T09:36:47;100881.28;;;9.33;84.36
77583;BME280;66726;52.388;9.986;2023-03-21T09:39:21;100888.72;;;9.39;84.10
77583;BME280;66726;52.388;9.986;2023-03-21T09:42:19;100880.25;;;9.44;82.53
77583;BME280;66726;52.388;9.986;2023-03-21T09:45:09;100875.59;;;9.46;82.83
77583;BME280;66726;52.388;9.986;2023-03-21T09:47:50;100884.56;;;9.54;82.23
77583;BME280;66726;52.388;9.986;2023-03-21T09:50:30;100879.59;;;9.59;82.76
77583;BME280;66726;52.388;9.986;2023-03-21T09:53:10;100879.00;;;9.65;82.28
77583;BME280;66726;52.388;9.986;2023-03-21T09:55:47;100867.38;;;9.75;80.67
77583;BME280;66726;52.388;9.986;2023-03-21T09:58:29;100876.19;;;9.85;81.44
77583;BME280;66726;52.388;9.986;2023-03-21T10:01:11;100877.38;;;9.90;80.06
77583;BME280;66726;52.388;9.986;2023-03-21T10:03:52;100884.97;;;9.95;80.63
77583;BME280;66726;52.388;9.986;2023-03-21T10:06:28;100877.56;;;10.06;79.61
77583;BME280;66726;52.388;9.986;2023-03-21T10:09:05;100872.44;;;10.13;79.85
77583;BME280;66726;52.388;9.986;2023-03-21T10:11:47;100875.59;;;10.26;79.54
77583;BME280;66726;52.388;9.986;2023-03-21T10:14:24;100868.53;;;10.25;80.13
77583;BME280;66726;52.388;9.986;2023-03-21T10:17:06;100866.78;;;10.34;79.75
77583;BME280;66726;52.388;9.986;2023-03-21T10:19:43;100866.28;;;10.38;78.47
77583;BME280;66726;52.388;9.986;2023-03-21T10:22:18;100862.94;;;10.36;78.48
77583;BME280;66726;52.388;9.986;2023-03-21T10:24:50;100863.25;;;10.33;78.16
77583;BME280;66726;52.388;9.986;2023-03-21T10:27:23;100858.75;;;10.34;78.73
77583;BME280;66726;52.388;9.986;2023-03-21T10:29:55;100860.28;;;10.36;78.20
77583;BME280;66726;52.388;9.986;2023-03-21T10:32:27;100852.38;;;10.35;77.93
77583;BME280;66726;52.388;9.986;2023-03-21T10:35:00;100864.25;;;10.32;78.41
77583;BME280;66726;52.388;9.986;2023-03-21T10:37:35;100861.97;;;10.37;77.73
77583;BME280;66726;52.388;9.986;2023-03-21T10:42:47;100851.25;;;10.37;78.01
77583;BME280;66726;52.388;9.986;2023-03-21T10:45:22;100858.66;;;10.43;77.70
77583;BME280;66726;52.388;9.986;2023-03-21T10:47:54;100857.94;;;10.41;77.17
77583;BME280;66726;52.388;9.986;2023-03-21T10:50:32;100857.28;;;10.39;77.31
77583;BME280;66726;52.388;9.986;2023-03-21T10:53:13;100856.13;;;10.42;77.32
77583;BME280;66726;52.388;9.986;2023-03-21T10:55:53;100857.13;;;10.41;78.42
77583;BME280;66726;52.388;9.986;2023-03-21T10:58:33;100860.09;;;10.38;78.96
77583;BME280;66726;52.388;9.986;2023-03-21T11:01:12;100854.91;;;10.36;78.95
77583;BME280;66726;52.388;9.986;2023-03-21T11:03:46;100854.25;;;10.34;79.81
77583;BME280;66726;52.388;9.986;2023-03-21T11:06:28;100851.72;;;10.33;80.36
77583;BME280;66726;52.388;9.986;2023-03-21T11:09:11;100844.53;;;10.33;80.54
77583;BME280;66726;52.388;9.986;2023-03-21T11:11:50;100834.81;;;10.32;80.26
77583;BME280;66726;52.388;9.986;2023-03-21T11:14:35;100834.81;;;10.32;80.98
77583;BME280;66726;52.388;9.986;2023-03-21T11:17:19;100834.50;;;10.35;81.48
77583;BME280;66726;52.388;9.986;2023-03-21T11:19:55;100835.03;;;10.39;82.48
77583;BME280;66726;52.388;9.986;2023-03-21T11:22:37;100843.22;;;10.37;81.59
77583;BME280;66726;52.388;9.986;2023-03-21T11:25:21;100833.06;;;10.41;82.50
77583;BME280;66726;52.388;9.986;2023-03-21T11:27:57;100837.91;;;10.45;82.66
77583;BME280;66726;52.388;9.986;2023-03-21T11:30:30;100837.56;;;10.40;81.75
77583;BME280;66726;52.388;9.986;2023-03-21T11:33:06;100836.25;;;10.44;82.55
77583;BME280;66726;52.388;9.986;2023-03-21T11:35:40;100835.56;;;10.42;82.51
77583;BME280;66726;52.388;9.986;2023-03-21T11:38:28;100838.63;;;10.47;83.37
77583;BME280;66726;52.388;9.986;2023-03-21T11:41:04;100836.25;;;10.44;82.88
77583;BME280;66726;52.388;9.986;2023-03-21T11:43:39;100836.41;;;10.43;82.51
77583;BME280;66726;52.388;9.986;2023-03-21T11:46:14;100830.59;;;10.47;83.52
77583;BME280;66726;52.388;9.986;2023-03-21T11:48:47;100825.91;;;10.49;83.93
77583;BME280;66726;52.388;9.986;2023-03-21T11:51:25;100824.53;;;10.45;82.96
77583;BME280;66726;52.388;9.986;2023-03-21T11:54:06;100825.38;;;10.46;83.91
77583;BME280;66726;52.388;9.986;2023-03-21T11:56:47;100820.03;;;10.46;84.14
77583;BME280;66726;52.388;9.986;2023-03-21T11:59:39;100814.13;;;10.42;83.94
77583;BME280;66726;52.388;9.986;2023-03-21T12:02:42;100808.78;;;10.42;84.40
77583;BME280;66726;52.388;9.986;2023-03-21T12:05:30;100802.28;;;10.45;85.31
77583;BME280;66726;52.388;9.986;2023-03-21T12:08:12;100800.41;;;10.37;84.05
77583;BME280;66726;52.388;9.986;2023-03-21T12:10:59;100803.75;;;10.39;85.23
77583;BME280;66726;52.388;9.986;2023-03-21T12:13:47;100808.25;;;10.39;85.07
77583;BME280;66726;52.388;9.986;2023-03-21T12:16:30;100797.88;;;10.36;84.79
77583;BME280;66726;52.388;9.986;2023-03-21T12:19:20;100801.41;;;10.36;85.24
77583;BME280;66726;52.388;9.986;2023-03-21T12:22:00;100800.72;;;10.34;85.58
77583;BME280;66726;52.388;9.986;2023-03-21T12:24:40;100799.88;;;10.34;85.97
77583;BME280;66726;52.388;9.986;2023-03-21T12:27:29;100779.59;;;10.31;85.68
77583;BME280;66726;52.388;9.986;2023-03-21T12:30:22;100786.31;;;10.35;87.08
77583;BME280;66726;52.388;9.986;2023-03-21T12:33:08;100782.34;;;10.39;87.45
77583;BME280;66726;52.388;9.986;2023-03-21T12:35:56;100775.78;;;10.34;87.79
77583;BME280;66726;52.388;9.986;2023-03-21T12:38:42;100772.28;;;10.33;87.83
77583;BME280;66726;52.388;9.986;2023-03-21T12:41:23;100767.91;;;10.32;87.97
77583;BME280;66726;52.388;9.986;2023-03-21T12:44:02;100782.28;;;10.31;88.02
77583;BME280;66726;52.388;9.986;2023-03-21T12:46:43;100776.25;;;10.29;87.91
77583;BME280;66726;52.388;9.986;2023-03-21T12:49:21;100779.94;;;10.28;87.82
77583;BME280;66726;52.388;9.986;2023-03-21T12:52:03;100777.75;;;10.24;87.35
77583;BME280;66726;52.388;9.986;2023-03-21T12:54:41;100782.25;;;10.23;88.31
77583;BME280;66726;52.388;9.986;2023-03-21T12:57:21;100774.88;;;10.25;88.26
77583;BME280;66726;52.388;9.986;2023-03-21T13:00:02;100765.88;;;10.26;88.08
77583;BME280;66726;52.388;9.986;2023-03-21T13:02:46;100764.06;;;10.35;88.61
77583;BME280;66726;52.388;9.986;2023-03-21T13:05:25;100761.88;;;10.30;88.44
77583;BME280;66726;52.388;9.986;2023-03-21T13:08:06;100756.22;;;10.33;88.97
77583;BME280;66726;52.388;9.986;2023-03-21T13:10:43;100754.91;;;10.37;89.63
77583;BME280;66726;52.388;9.986;2023-03-21T13:13:24;100753.91;;;10.38;89.31
77583;BME280;66726;52.388;9.986;2023-03-21T13:16:11;100753.03;;;10.38;89.31
77583;BME280;66726;52.388;9.986;2023-03-21T13:18:56;100743.50;;;10.35;88.43
77583;BME280;66726;52.388;9.986;2023-03-21T13:21:40;100744.66;;;10.33;88.01
77583;BME280;66726;52.388;9.986;2023-03-21T13:24:27;100733.44;;;10.29;88.68
77583;BME280;66726;52.388;9.986;2023-03-21T13:27:03;100733.59;;;10.28;88.06
77583;BME280;66726;52.388;9.986;2023-03-21T13:29:48;100730.09;;;10.27;88.22
77583;BME280;66726;52.388;9.986;2023-03-21T13:32:29;100727.56;;;10.26;88.59
77583;BME280;66726;52.388;9.986;2023-03-21T13:35:16;100729.78;;;10.30;89.08
77583;BME280;66726;52.388;9.986;2023-03-21T13:37:55;100730.38;;;10.24;88.54
77583;BME280;66726;52.388;9.986;2023-03-21T13:40:36;100730.38;;;10.24;89.02
77583;BME280;66726;52.388;9.986;2023-03-21T13:43:33;100728.03;;;10.21;89.29
77583;BME280;66726;52.388;9.986;2023-03-21T13:46:11;100729.88;;;10.21;88.61
77583;BME280;66726;52.388;9.986;2023-03-21T13:48:57;100718.34;;;10.20;89.05
77583;BME280;66726;52.388;9.986;2023-03-21T13:51:52;100724.22;;;10.24;89.23
77583;BME280;66726;52.388;9.986;2023-03-21T13:54:43;100725.56;;;10.28;90.21